Time;durP1;ratioP1;P1;durP2;ratioP2;P2;SDS_P1;SDS_P2;PMS_P1;PMS_P2;Temp;Humidity;BMP_temperature;BMP_pressure;BME280_temperature;BME280_humidity;BME280_pressure;Samples;Min_cycle;Max_cycle;Signal;HPM_P1;HPM_P2
2022/02/28 00:00:55;;;;;;;0.20;0.10;;;;;;;1.25;88.94;101814.41;5013150;28;20453;-50
2022/02/28 00:03:25;;;;;;;0.20;0.10;;;;;;;1.38;88.80;101811.38;5008190;28;20480;-51
2022/02/28 00:05:52;;;;;;;0.20;0.10;;;;;;;1.31;89.98;101819.84;5009626;28;20506;-50
2022/02/28 00:08:19;;;;;;;0.57;0.57;;;;;;;1.15;88.83;101809.69;5013268;28;20469;-50
2022/02/28 00:10:45;;;;;;;0.20;0.20;;;;;;;1.19;90.05;101817.69;5013085;28;20507;-52
2022/02/28 00:13:12;;;;;;;0.97;0.97;;;;;;;1.37;88.37;101820.06;5013078;28;20448;-50
2022/02/28 00:15:39;;;;;;;0.20;0.20;;;;;;;0.93;88.73;101821.13;5012969;28;20488;-52
2022/02/28 00:18:05;;;;;;;0.20;0.20;;;;;;;1.01;89.45;101821.41;5012822;28;20481;-50
2022/02/28 00:20:32;;;;;;;0.20;0.10;;;;;;;0.87;90.53;101824.44;5012715;28;20941;-51
2022/02/28 00:22:59;;;;;;;0.20;0.10;;;;;;;0.76;90.08;101823.16;5012861;28;20530;-50
2022/02/28 00:25:26;;;;;;;0.20;0.10;;;;;;;0.86;90.79;101822.66;5012972;28;20452;-51
2022/02/28 00:27:54;;;;;;;1.60;1.60;;;;;;;0.78;91.91;101820.59;5012826;28;20503;-51
2022/02/28 00:30:20;;;;;;;0.30;0.20;;;;;;;0.71;90.53;101823.84;5012665;28;20455;-51
2022/02/28 00:32:47;;;;;;;0.20;0.10;;;;;;;0.84;90.82;101819.09;5012653;28;20506;-51
2022/02/28 00:35:14;;;;;;;0.20;0.10;;;;;;;0.82;91.50;101827.72;5001705;28;20483;-50
2022/02/28 00:37:40;;;;;;;0.20;0.10;;;;;;;0.61;91.34;101826.94;5012848;28;20499;-50
2022/02/28 00:40:08;;;;;;;0.20;0.10;;;;;;;0.37;91.74;101822.59;5012619;28;20519;-50
2022/02/28 00:42:36;;;;;;;0.20;0.10;;;;;;;0.48;91.75;101828.22;5012578;28;20546;-51
2022/02/28 00:45:04;;;;;;;1.60;1.50;;;;;;;0.66;92.25;101828.88;5012520;28;20809;-50
2022/02/28 00:47:30;;;;;;;0.20;0.10;;;;;;;0.47;91.92;101819.50;5012458;28;20448;-51
2022/02/28 00:49:57;;;;;;;0.20;0.10;;;;;;;0.28;92.96;101827.50;5012394;28;20898;-50
2022/02/28 00:52:24;;;;;;;0.20;0.10;;;;;;;0.31;93.61;101825.00;5012815;28;20445;-51
2022/02/28 00:54:51;;;;;;;0.40;0.40;;;;;;;0.25;93.28;101825.63;5012328;28;20942;-50
2022/02/28 00:57:17;;;;;;;0.20;0.10;;;;;;;0.07;92.99;101817.09;4997318;28;20441;-50
2022/02/28 00:59:44;;;;;;;0.20;0.10;;;;;;;0.08;93.95;101817.97;5011988;28;20472;-51
2022/02/28 01:02:11;;;;;;;0.20;0.10;;;;;;;0.11;93.93;101816.38;5008698;28;20457;-50
2022/02/28 01:04:38;;;;;;;0.20;0.10;;;;;;;0.37;92.89;101817.34;5008762;28;20476;-50
2022/02/28 01:07:05;;;;;;;0.20;0.10;;;;;;;0.34;93.71;101813.75;5016583;28;20878;-51
2022/02/28 01:09:32;;;;;;;0.20;0.10;;;;;;;0.28;94.07;101815.31;5016508;28;20468;-50
2022/02/28 01:12:02;;;;;;;0.30;0.23;;;;;;;-0.10;92.78;101810.34;5016260;28;20479;-50
2022/02/28 01:14:29;;;;;;;0.30;0.20;;;;;;;0.32;94.32;101813.69;5016254;28;20507;-51
2022/02/28 01:16:56;;;;;;;0.40;0.40;;;;;;;0.06;93.55;101820.53;5016355;28;20511;-50
2022/02/28 01:19:22;;;;;;;0.20;0.10;;;;;;;0.07;94.12;101824.03;5016476;28;20474;-51
2022/02/28 01:21:49;;;;;;;0.20;0.10;;;;;;;-0.22;93.89;101817.69;5016471;28;20456;-50
2022/02/28 01:24:16;;;;;;;0.20;0.10;;;;;;;-0.06;94.59;101815.72;5016311;28;20544;-50
2022/02/28 01:26:43;;;;;;;0.20;0.10;;;;;;;-0.01;95.70;101813.28;5015937;28;21001;-51
2022/02/28 01:29:09;;;;;;;0.20;0.10;;;;;;;-0.07;94.70;101815.66;5015939;28;20523;-50
2022/02/28 01:31:36;;;;;;;0.20;0.10;;;;;;;0.06;94.59;101804.84;5015845;28;20480;-51
2022/02/28 01:34:04;;;;;;;0.20;0.10;;;;;;;-0.14;94.82;101805.78;5010312;28;20445;-50
2022/02/28 01:36:30;;;;;;;0.20;0.10;;;;;;;-0.21;95.35;101794.22;5011128;28;20452;-50
2022/02/28 01:38:57;;;;;;;0.20;0.10;;;;;;;-0.31;95.22;101805.13;5015857;28;20538;-50
2022/02/28 01:41:24;;;;;;;0.20;0.10;;;;;;;-0.37;95.66;101810.13;5015618;28;20456;-50
2022/02/28 01:43:50;;;;;;;0.20;0.10;;;;;;;-0.39;95.75;101807.47;5015512;28;20488;-50
2022/02/28 01:46:17;;;;;;;0.20;0.10;;;;;;;-0.35;95.99;101803.25;5015766;28;20460;-50
2022/02/28 01:48:44;;;;;;;0.20;0.10;;;;;;;-0.52;95.73;101794.75;5015436;28;20858;-50
2022/02/28 01:51:11;;;;;;;0.20;0.10;;;;;;;-0.45;95.68;101799.38;5015416;28;20448;-50
2022/02/28 01:53:37;;;;;;;0.20;0.10;;;;;;;-0.45;96.04;101788.91;5015484;28;20452;-51
2022/02/28 01:56:04;;;;;;;0.30;0.30;;;;;;;-0.30;95.58;101799.06;5011107;28;20457;-51
2022/02/28 01:58:36;;;;;;;0.20;0.10;;;;;;;-0.36;96.47;101788.41;5005362;28;20468;-51
2022/02/28 02:01:04;;;;;;;0.20;0.10;;;;;;;-0.48;95.88;101799.25;5015314;28;20480;-50
2022/02/28 02:03:32;;;;;;;0.33;0.30;;;;;;;-0.63;96.39;101793.41;5009359;28;20563;-51
2022/02/28 02:06:01;;;;;;;0.20;0.10;;;;;;;-0.71;96.35;101792.19;5012848;28;20535;-51
2022/02/28 02:08:28;;;;;;;0.20;0.10;;;;;;;-0.76;97.18;101788.50;5015172;28;20480;-51
2022/02/28 02:10:54;;;;;;;0.20;0.10;;;;;;;-0.74;97.23;101789.47;5015349;28;20504;-50
2022/02/28 02:13:21;;;;;;;0.20;0.10;;;;;;;-0.69;97.08;101794.03;5015409;28;20507;-51
2022/02/28 02:15:48;;;;;;;0.20;0.10;;;;;;;-0.80;97.23;101787.50;5015139;28;20510;-50
2022/02/28 02:18:19;;;;;;;0.20;0.10;;;;;;;-0.83;96.77;101792.56;5015103;28;20558;-51
2022/02/28 02:20:45;;;;;;;0.20;0.10;;;;;;;-1.00;97.27;101789.25;5014948;28;20453;-50
2022/02/28 02:23:13;;;;;;;0.20;0.10;;;;;;;-1.05;97.65;101790.78;5014906;28;21008;-50
2022/02/28 02:25:41;;;;;;;0.20;0.10;;;;;;;-1.32;98.17;101794.81;5015081;28;20799;-51
2022/02/28 02:28:09;;;;;;;0.60;0.60;;;;;;;-1.33;98.72;101796.53;5015086;28;20555;-51
2022/02/28 02:30:36;;;;;;;0.20;0.10;;;;;;;-1.43;99.28;101785.63;5014968;28;20507;-50
2022/02/28 02:33:03;;;;;;;0.20;0.10;;;;;;;-1.20;98.67;101784.91;5014791;28;20449;-50
2022/02/28 02:35:31;;;;;;;0.20;0.10;;;;;;;-1.30;98.38;101785.34;5003604;28;20456;-51
2022/02/28 02:37:58;;;;;;;0.20;0.10;;;;;;;-1.28;98.22;101788.91;5014499;28;20872;-51
2022/02/28 02:40:25;;;;;;;0.20;0.10;;;;;;;-1.54;97.81;101790.34;5014607;28;20448;-50
2022/02/28 02:42:52;;;;;;;1.40;0.77;;;;;;;-1.53;99.32;101789.53;5014628;28;20896;-50
2022/02/28 02:45:18;;;;;;;0.20;0.10;;;;;;;-1.47;99.37;101788.94;5014745;28;20460;-50
2022/02/28 02:47:45;;;;;;;0.20;0.10;;;;;;;-1.42;98.59;101783.09;5014420;28;20499;-51
2022/02/28 02:50:15;;;;;;;0.77;0.77;;;;;;;-1.29;98.35;101792.34;5014358;28;20463;-51
2022/02/28 02:52:41;;;;;;;0.20;0.10;;;;;;;-1.44;98.53;101789.06;5014549;28;20452;-50
2022/02/28 02:55:08;;;;;;;0.20;0.10;;;;;;;-1.41;98.17;101799.63;5014344;28;20448;-51
2022/02/28 02:57:35;;;;;;;0.20;0.20;;;;;;;-1.34;98.63;101794.75;4999577;28;20450;-50
2022/02/28 03:00:08;;;;;;;0.20;0.10;;;;;;;-1.57;98.78;101792.84;5014171;28;20496;-50
2022/02/28 03:02:35;;;;;;;0.20;0.17;;;;;;;-1.55;99.69;101791.19;5010336;28;21028;-50
2022/02/28 03:05:02;;;;;;;0.20;0.10;;;;;;;-1.75;98.83;101792.91;5010116;28;20457;-50
2022/02/28 03:07:29;;;;;;;0.20;0.10;;;;;;;-1.58;99.85;101794.56;5014271;28;20448;-51
2022/02/28 03:09:55;;;;;;;0.20;0.10;;;;;;;-1.50;99.61;101798.41;5014292;28;20484;-50
2022/02/28 03:12:22;;;;;;;0.20;0.10;;;;;;;-1.43;99.13;101798.66;5014080;28;20445;-51
2022/02/28 03:14:49;;;;;;;0.20;0.10;;;;;;;-1.48;98.89;101788.03;5014107;28;20456;-50
2022/02/28 03:17:15;;;;;;;0.50;0.50;;;;;;;-1.44;99.25;101786.44;5013987;28;20807;-50
2022/02/28 03:19:42;;;;;;;0.20;0.10;;;;;;;-1.46;98.31;101788.09;5014132;28;20906;-50
2022/02/28 03:22:09;;;;;;;0.20;0.10;;;;;;;-1.60;98.06;101791.00;5013809;28;20816;-51
2022/02/28 03:24:35;;;;;;;0.20;0.10;;;;;;;-1.75;98.60;101797.25;5013981;28;20524;-50
2022/02/28 03:27:02;;;;;;;0.20;0.10;;;;;;;-1.77;100.00;101796.28;5013635;28;20479;-50
2022/02/28 03:29:29;;;;;;;0.20;0.10;;;;;;;-1.93;99.74;101789.44;5013485;28;20556;-50
2022/02/28 03:31:55;;;;;;;0.20;0.10;;;;;;;-1.83;100.00;101787.34;5013586;28;20480;-50
2022/02/28 03:34:22;;;;;;;0.27;0.17;;;;;;;-1.86;99.34;101786.31;5005534;28;20449;-51
2022/02/28 03:36:49;;;;;;;0.60;0.57;;;;;;;-1.86;98.69;101788.91;5010960;28;20503;-50
2022/02/28 03:39:15;;;;;;;0.20;0.10;;;;;;;-1.90;99.81;101792.22;5012364;28;20989;-51
2022/02/28 03:41:42;;;;;;;0.30;0.20;;;;;;;-2.02;99.93;101782.13;5013521;28;20514;-50
2022/02/28 03:44:09;;;;;;;0.20;0.10;;;;;;;-1.72;99.71;101793.03;5013529;28;20492;-50
2022/02/28 03:46:36;;;;;;;0.30;0.20;;;;;;;-1.80;99.52;101789.19;5000230;28;20874;-50
2022/02/28 03:49:02;;;;;;;0.23;0.20;;;;;;;-1.87;99.76;101782.81;5013264;28;21056;-50
2022/02/28 03:51:32;;;;;;;0.20;0.10;;;;;;;-1.94;100.00;101782.44;5013456;28;20527;-50
2022/02/28 03:53:59;;;;;;;0.20;0.10;;;;;;;-2.04;100.00;101778.56;5013339;28;20867;-50
2022/02/28 03:56:25;;;;;;;4.07;3.80;;;;;;;-1.99;100.00;101771.84;5006314;28;20446;-51
2022/02/28 03:58:52;;;;;;;0.20;0.10;;;;;;;-1.89;100.00;101780.97;5005924;28;20465;-50
2022/02/28 04:01:18;;;;;;;0.20;0.10;;;;;;;-1.67;100.00;101769.78;5013084;28;21007;-51
2022/02/28 04:03:45;;;;;;;0.20;0.20;;;;;;;-1.88;100.00;101774.94;5005232;28;20497;-50
2022/02/28 04:06:12;;;;;;;0.20;0.10;;;;;;;-1.87;100.00;101776.72;5012302;28;20445;-50
2022/02/28 04:08:39;;;;;;;0.20;0.10;;;;;;;-1.79;100.00;101764.91;5013572;28;20526;-50
2022/02/28 04:11:06;;;;;;;0.20;0.10;;;;;;;-1.77;100.00;101770.22;5012982;28;20477;-50
2022/02/28 04:13:32;;;;;;;0.20;0.10;;;;;;;-1.88;100.00;101769.72;5013091;28;20448;-52
2022/02/28 04:15:59;;;;;;;0.20;0.10;;;;;;;-1.88;100.00;101772.34;5012900;28;20937;-50
2022/02/28 04:18:26;;;;;;;0.20;0.13;;;;;;;-1.99;100.00;101770.94;5013116;28;20501;-51
2022/02/28 04:20:52;;;;;;;0.20;0.10;;;;;;;-1.93;100.00;101766.00;4987013;28;20938;-50
2022/02/28 04:23:19;;;;;;;0.30;0.30;;;;;;;-1.93;100.00;101769.50;5012992;28;20484;-50
2022/02/28 04:25:46;;;;;;;0.30;0.20;;;;;;;-1.86;100.00;101770.69;4986909;28;20488;-50
2022/02/28 04:28:12;;;;;;;0.20;0.10;;;;;;;-1.97;100.00;101767.59;5012725;28;21035;-51
2022/02/28 04:30:39;;;;;;;0.20;0.10;;;;;;;-2.12;100.00;101765.16;5013064;28;20599;-52
2022/02/28 04:33:05;;;;;;;0.20;0.10;;;;;;;-2.16;100.00;101762.34;5012701;28;20495;-51
2022/02/28 04:35:32;;;;;;;0.20;0.13;;;;;;;-2.18;100.00;101753.59;5002087;28;20486;-50
2022/02/28 04:38:01;;;;;;;0.20;0.10;;;;;;;-2.03;100.00;101750.78;5012671;28;20514;-50
2022/02/28 04:40:28;;;;;;;0.20;0.10;;;;;;;-2.29;100.00;101760.91;5011916;28;20825;-50
2022/02/28 04:42:55;;;;;;;0.50;0.50;;;;;;;-2.20;100.00;101757.81;5012396;28;20483;-50
2022/02/28 04:45:22;;;;;;;0.20;0.10;;;;;;;-2.43;100.00;101754.16;5012850;28;20476;-50
2022/02/28 04:47:49;;;;;;;0.20;0.10;;;;;;;-2.42;100.00;101755.94;5012747;28;20492;-50
2022/02/28 04:50:15;;;;;;;0.20;0.10;;;;;;;-2.33;100.00;101758.97;5013317;28;20449;-50
2022/02/28 04:52:42;;;;;;;0.20;0.10;;;;;;;-2.34;100.00;101764.97;5012556;28;20444;-50
2022/02/28 04:55:09;;;;;;;0.20;0.10;;;;;;;-2.20;100.00;101770.81;5012531;28;20445;-50
2022/02/28 04:57:41;;;;;;;0.20;0.10;;;;;;;-2.37;100.00;101767.44;4997897;28;20477;-50
2022/02/28 05:00:09;;;;;;;0.20;0.10;;;;;;;-2.53;100.00;101775.34;5012649;28;20500;-50
2022/02/28 05:02:36;;;;;;;0.20;0.10;;;;;;;-2.55;100.00;101775.28;5008208;28;20449;-50
2022/02/28 05:05:03;;;;;;;0.20;0.10;;;;;;;-2.43;100.00;101767.16;5008497;28;20587;-51
2022/02/28 05:07:30;;;;;;;0.20;0.10;;;;;;;-2.44;100.00;101768.88;5012539;28;20483;-51
2022/02/28 05:09:57;;;;;;;0.20;0.10;;;;;;;-2.45;100.00;101774.91;5012811;28;20480;-50
2022/02/28 05:12:24;;;;;;;0.20;0.10;;;;;;;-2.49;100.00;101770.34;5012750;28;20526;-50
2022/02/28 05:14:51;;;;;;;0.20;0.10;;;;;;;-2.52;100.00;101769.31;5012326;28;20484;-50
2022/02/28 05:17:18;;;;;;;0.20;0.10;;;;;;;-2.57;100.00;101781.22;5012158;28;20488;-50
2022/02/28 05:19:44;;;;;;;0.20;0.10;;;;;;;-2.50;100.00;101772.88;5012419;28;20472;-50
2022/02/28 05:22:11;;;;;;;0.30;0.30;;;;;;;-2.41;100.00;101787.22;5012249;28;20456;-50
2022/02/28 05:24:38;;;;;;;0.20;0.10;;;;;;;-2.54;99.80;101786.56;5012370;28;20528;-51
2022/02/28 05:27:09;;;;;;;0.20;0.20;;;;;;;-2.61;100.00;101785.38;5012103;28;20448;-50
2022/02/28 05:29:37;;;;;;;0.30;0.20;;;;;;;-2.66;100.00;101789.47;5012231;28;20468;-50
2022/02/28 05:32:05;;;;;;;0.20;0.10;;;;;;;-2.65;100.00;101792.97;5012039;28;20794;-50
2022/02/28 05:34:32;;;;;;;0.20;0.10;;;;;;;-2.45;100.00;101794.84;5002394;28;20445;-51
2022/02/28 05:36:59;;;;;;;0.20;0.10;;;;;;;-2.17;97.52;101799.66;5011196;28;20449;-51
2022/02/28 05:39:25;;;;;;;0.20;0.10;;;;;;;-2.51;98.91;101797.13;5012255;28;20471;-51
2022/02/28 05:41:52;;;;;;;0.20;0.10;;;;;;;-2.58;99.27;101792.47;5011913;28;20966;-51
2022/02/28 05:44:19;;;;;;;0.20;0.10;;;;;;;-2.64;99.29;101797.34;5012005;28;20523;-50
2022/02/28 05:46:45;;;;;;;0.20;0.10;;;;;;;-2.67;99.38;101794.59;5012077;28;20538;-51
2022/02/28 05:49:12;;;;;;;0.20;0.10;;;;;;;-2.84;99.15;101793.78;5011850;28;20905;-50
2022/02/28 05:51:39;;;;;;;0.20;0.10;;;;;;;-2.81;99.97;101796.53;5013711;28;20467;-50
2022/02/28 05:54:05;;;;;;;0.20;0.10;;;;;;;-2.93;100.00;101801.09;5015901;28;20507;-51
2022/02/28 05:56:33;;;;;;;0.20;0.10;;;;;;;-2.94;100.00;101797.63;5007651;28;20450;-50
2022/02/28 05:59:00;;;;;;;0.20;0.10;;;;;;;-2.95;100.00;101803.63;5009273;28;20500;-50
2022/02/28 06:01:27;;;;;;;0.20;0.10;;;;;;;-2.85;100.00;101799.78;5015746;28;20460;-51
2022/02/28 06:03:53;;;;;;;0.20;0.10;;;;;;;-2.81;100.00;101807.81;5006316;28;20998;-51
2022/02/28 06:06:20;;;;;;;0.20;0.10;;;;;;;-2.79;100.00;101811.38;5002561;28;20976;-51
2022/02/28 06:08:47;;;;;;;0.20;0.10;;;;;;;-2.88;100.00;101808.31;5015569;28;20479;-51
2022/02/28 06:11:14;;;;;;;0.20;0.10;;;;;;;-3.01;100.00;101808.53;5015666;28;20444;-51
2022/02/28 06:13:41;;;;;;;0.20;0.10;;;;;;;-2.97;100.00;101805.28;5015404;28;20448;-51
2022/02/28 06:16:07;;;;;;;0.20;0.10;;;;;;;-2.94;100.00;101810.63;5015355;28;20502;-51
2022/02/28 06:18:34;;;;;;;0.20;0.10;;;;;;;-3.05;100.00;101806.59;5014904;28;20531;-51
2022/02/28 06:21:01;;;;;;;0.20;0.10;;;;;;;-2.82;100.00;101807.75;5015398;28;20448;-51
2022/02/28 06:23:28;;;;;;;0.20;0.10;;;;;;;-2.83;100.00;101814.66;5014840;28;20507;-51
2022/02/28 06:25:55;;;;;;;0.20;0.10;;;;;;;-2.71;100.00;101819.59;5015656;28;20946;-51
2022/02/28 06:28:22;;;;;;;0.20;0.10;;;;;;;-2.91;100.00;101820.28;5014953;28;20918;-51
2022/02/28 06:30:49;;;;;;;0.20;0.10;;;;;;;-2.66;100.00;101823.28;5015106;28;20453;-51
2022/02/28 06:33:16;;;;;;;0.20;0.10;;;;;;;-2.72;100.00;101818.69;5014796;28;20452;-51
2022/02/28 06:35:48;;;;;;;0.20;0.10;;;;;;;-2.71;100.00;101827.38;5004160;28;20445;-51
2022/02/28 06:38:18;;;;;;;0.20;0.10;;;;;;;-2.66;100.00;101832.81;5014671;28;20472;-51
2022/02/28 06:40:48;;;;;;;0.20;0.10;;;;;;;-2.59;100.00;101832.31;5014856;28;20945;-51
2022/02/28 06:43:17;;;;;;;0.20;0.10;;;;;;;-2.48;100.00;101831.09;5014641;28;20453;-51
2022/02/28 06:45:44;;;;;;;0.20;0.10;;;;;;;-2.49;100.00;101837.13;5014502;28;20492;-51
2022/02/28 06:48:10;;;;;;;0.20;0.10;;;;;;;-2.37;100.00;101840.34;5014342;28;20519;-52
2022/02/28 06:50:38;;;;;;;0.20;0.10;;;;;;;-2.33;100.00;101837.09;5014733;28;20449;-51
2022/02/28 06:53:04;;;;;;;0.20;0.10;;;;;;;-2.39;100.00;101839.38;5014594;28;20503;-51
2022/02/28 06:55:35;;;;;;;0.20;0.13;;;;;;;-2.18;100.00;101835.22;5014293;28;20448;-52
2022/02/28 06:58:01;;;;;;;0.20;0.10;;;;;;;-2.09;100.00;101845.16;5000073;28;20448;-51
2022/02/28 07:00:30;;;;;;;0.20;0.10;;;;;;;-1.91;100.00;101845.16;5014438;28;20606;-51
2022/02/28 07:02:57;;;;;;;0.20;0.20;;;;;;;-1.85;100.00;101846.31;5009445;28;20453;-51
2022/02/28 07:05:24;;;;;;;0.20;0.10;;;;;;;-1.83;100.00;101843.78;5010555;28;20538;-51
2022/02/28 07:07:51;;;;;;;0.20;0.13;;;;;;;-1.74;100.00;101841.59;5014222;28;20942;-51
2022/02/28 07:10:18;;;;;;;0.20;0.10;;;;;;;-1.71;100.00;101844.34;5014212;28;20452;-52
2022/02/28 07:12:45;;;;;;;0.20;0.10;;;;;;;-1.54;100.00;101835.56;4988548;28;20497;-51
2022/02/28 07:15:12;;;;;;;0.20;0.10;;;;;;;-1.41;100.00;101839.63;5013921;28;20452;-51
2022/02/28 07:17:38;;;;;;;0.20;0.10;;;;;;;-1.33;100.00;101830.44;5014228;28;20526;-51
2022/02/28 07:20:08;;;;;;;0.20;0.10;;;;;;;-1.12;100.00;101827.84;5014068;28;20861;-51
2022/02/28 07:22:34;;;;;;;0.20;0.10;;;;;;;-1.06;100.00;101825.53;5014083;28;20511;-51
2022/02/28 07:25:01;;;;;;;0.97;0.97;;;;;;;-0.95;100.00;101832.13;5013871;28;20835;-52
2022/02/28 07:27:27;;;;;;;0.20;0.10;;;;;;;-0.86;100.00;101835.91;5013737;28;20452;-52
2022/02/28 07:29:54;;;;;;;0.20;0.10;;;;;;;-0.73;99.56;101831.28;5013941;28;20473;-51
2022/02/28 07:32:21;;;;;;;0.20;0.10;;;;;;;-0.65;99.06;101836.84;5013801;28;20453;-51
2022/02/28 07:34:47;;;;;;;0.20;0.10;;;;;;;-0.60;99.02;101840.53;5003437;28;20535;-51
2022/02/28 07:37:16;;;;;;;0.20;0.13;;;;;;;-0.47;98.47;101836.69;5013745;28;20456;-52
2022/02/28 07:39:43;;;;;;;0.20;0.10;;;;;;;-0.39;98.00;101840.53;5013464;28;20555;-52
2022/02/28 07:42:15;;;;;;;0.20;0.20;;;;;;;-0.22;98.08;101841.19;5012767;28;20467;-51
2022/02/28 07:44:42;;;;;;;0.20;0.10;;;;;;;-0.15;98.68;101846.72;5013499;28;20532;-52
2022/02/28 07:47:09;;;;;;;0.20;0.10;;;;;;;-0.11;98.15;101848.63;5013627;28;20459;-51
2022/02/28 07:49:38;;;;;;;0.20;0.10;;;;;;;0.04;97.36;101845.72;5013373;28;20488;-51
2022/02/28 07:52:05;;;;;;;0.77;0.77;;;;;;;0.05;97.94;101850.13;5013614;28;20479;-51
2022/02/28 07:54:31;;;;;;;0.20;0.10;;;;;;;0.10;97.72;101847.69;5013097;28;20503;-51
2022/02/28 07:56:58;;;;;;;0.20;0.10;;;;;;;0.26;98.07;101847.44;5002932;28;20453;-51
2022/02/28 07:59:24;;;;;;;0.20;0.10;;;;;;;0.25;96.74;101848.28;5010561;28;20469;-51
2022/02/28 08:01:51;;;;;;;0.30;0.20;;;;;;;0.41;97.53;101855.91;5012546;28;20448;-51
2022/02/28 08:04:18;;;;;;;0.20;0.20;;;;;;;0.44;97.49;101852.50;5006397;28;20948;-51
2022/02/28 08:06:45;;;;;;;0.20;0.10;;;;;;;0.51;97.29;101850.16;5013130;28;20506;-52
2022/02/28 08:09:12;;;;;;;0.20;0.10;;;;;;;0.66;95.66;101844.59;5013004;28;20473;-51
2022/02/28 08:11:38;;;;;;;0.20;0.10;;;;;;;0.78;96.23;101850.28;5013218;28;20942;-52
2022/02/28 08:14:05;;;;;;;0.20;0.10;;;;;;;0.80;95.88;101845.97;5013363;28;20456;-51
2022/02/28 08:16:32;;;;;;;1.17;1.17;;;;;;;0.98;96.04;101845.78;5013840;28;20483;-51
2022/02/28 08:18:59;;;;;;;0.20;0.10;;;;;;;0.97;95.32;101848.34;5012882;28;20476;-52
2022/02/28 08:21:25;;;;;;;0.20;0.10;;;;;;;1.02;95.51;101854.63;5013086;28;20453;-53
2022/02/28 08:23:52;;;;;;;0.20;0.10;;;;;;;1.10;95.09;101850.56;5012733;28;20816;-51
2022/02/28 08:26:18;;;;;;;0.20;0.10;;;;;;;1.14;95.09;101837.59;5013223;28;20461;-51
2022/02/28 08:28:45;;;;;;;0.20;0.20;;;;;;;1.30;94.09;101840.75;5012666;28;21074;-51
2022/02/28 08:31:12;;;;;;;0.20;0.10;;;;;;;1.51;93.36;101833.63;5012893;28;20484;-51
2022/02/28 08:33:38;;;;;;;0.30;0.20;;;;;;;1.67;91.79;101842.88;5010145;28;20528;-51
2022/02/28 08:36:05;;;;;;;0.20;0.10;;;;;;;1.85;91.41;101846.06;5004545;28;20476;-52
2022/02/28 08:38:32;;;;;;;0.20;0.10;;;;;;;1.93;90.63;101847.22;5012617;28;20507;-51
2022/02/28 08:40:58;;;;;;;0.40;0.40;;;;;;;2.31;89.53;101844.84;5012881;28;20484;-51
2022/02/28 08:43:26;;;;;;;1.50;1.13;;;;;;;2.28;88.09;101847.41;5012794;28;20463;-52
2022/02/28 08:45:53;;;;;;;0.77;0.73;;;;;;;2.50;87.37;101841.94;5012704;28;20981;-51
2022/02/28 08:48:20;;;;;;;0.30;0.20;;;;;;;2.49;87.68;101834.94;5012248;28;21063;-51
2022/02/28 08:50:47;;;;;;;0.20;0.20;;;;;;;2.51;87.87;101833.22;5012613;28;20477;-51
2022/02/28 08:53:14;;;;;;;2.90;2.00;;;;;;;2.66;87.70;101841.53;5012545;28;20453;-51
2022/02/28 08:55:40;;;;;;;0.20;0.20;;;;;;;2.85;87.26;101842.06;5011645;28;20484;-51
2022/02/28 08:58:07;;;;;;;0.20;0.10;;;;;;;2.90;86.38;101843.97;4998857;28;20531;-51
2022/02/28 09:00:33;;;;;;;0.20;0.10;;;;;;;3.25;85.99;101842.28;5012538;28;20452;-51
2022/02/28 09:03:01;;;;;;;0.20;0.10;;;;;;;3.14;85.41;101848.09;5008211;28;20498;-51
2022/02/28 09:05:28;;;;;;;0.53;0.53;;;;;;;3.61;84.70;101851.97;5007814;28;20496;-51
2022/02/28 09:07:55;;;;;;;0.87;0.47;;;;;;;3.81;83.66;101842.81;5012332;28;20452;-51
2022/02/28 09:10:21;;;;;;;0.20;0.20;;;;;;;3.88;84.45;101850.88;5012490;28;20503;-51
2022/02/28 09:12:48;;;;;;;0.20;0.20;;;;;;;3.74;85.17;101845.28;4986223;28;20456;-51
2022/02/28 09:15:15;;;;;;;0.30;0.20;;;;;;;3.95;84.62;101839.63;5012326;28;20484;-51
2022/02/28 09:17:41;;;;;;;2.63;1.07;;;;;;;3.84;84.25;101842.91;4999284;28;20453;-51
2022/02/28 09:20:08;;;;;;;0.20;0.10;;;;;;;3.99;84.65;101844.13;5012267;28;20562;-52
2022/02/28 09:22:35;;;;;;;0.40;0.40;;;;;;;4.16;83.53;101835.75;5012381;28;20444;-51
2022/02/28 09:25:02;;;;;;;0.20;0.10;;;;;;;4.16;83.47;101841.00;5012009;28;20485;-51
2022/02/28 09:27:29;;;;;;;0.20;0.10;;;;;;;4.35;82.80;101837.03;5015830;28;20480;-51
2022/02/28 09:30:14;;;;;;;0.20;0.20;;;;;;;4.32;82.93;101839.59;5014898;28;20444;-51
2022/02/28 09:32:40;;;;;;;0.20;0.20;;;;;;;4.55;81.81;101839.22;5016074;28;20511;-51
2022/02/28 09:35:07;;;;;;;0.30;0.30;;;;;;;4.64;81.02;101842.03;5004874;28;20448;-51
2022/02/28 09:37:34;;;;;;;0.30;0.20;;;;;;;4.73;81.63;101835.22;5016176;28;20453;-51
2022/02/28 09:40:00;;;;;;;2.93;2.73;;;;;;;4.78;80.78;101840.56;5014658;28;20480;-51
2022/02/28 09:42:28;;;;;;;0.20;0.10;;;;;;;4.89;80.15;101833.75;5016116;28;20453;-51
2022/02/28 09:44:57;;;;;;;0.20;0.20;;;;;;;4.94;79.76;101828.59;5015608;28;20484;-52
2022/02/28 09:47:23;;;;;;;0.20;0.10;;;;;;;5.29;78.61;101832.75;5016241;28;20504;-51
2022/02/28 09:49:52;;;;;;;0.20;0.20;;;;;;;5.41;78.15;101834.72;5015684;28;20492;-51
2022/02/28 09:52:19;;;;;;;0.20;0.10;;;;;;;5.65;77.74;101824.59;5015930;28;20452;-51
2022/02/28 09:54:46;;;;;;;0.20;0.10;;;;;;;5.70;77.04;101823.78;5015702;28;20506;-51
2022/02/28 09:57:15;;;;;;;0.20;0.10;;;;;;;5.75;75.10;101822.97;5002394;28;20445;-51
2022/02/28 09:59:41;;;;;;;0.20;0.10;;;;;;;5.57;76.20;101830.59;5014573;28;20468;-51
2022/02/28 10:02:09;;;;;;;0.27;0.17;;;;;;;5.61;76.00;101830.66;5012481;28;20477;-51
2022/02/28 10:04:36;;;;;;;0.20;0.17;;;;;;;5.84;75.77;101828.41;5010642;28;20458;-51
2022/02/28 10:07:23;;;;;;;0.63;0.63;;;;;;;6.29;69.98;101827.31;5015591;28;20452;-51
2022/02/28 10:10:07;;;;;;;0.20;0.10;;;;;;;6.44;65.12;101821.34;5015338;28;21025;-52
2022/02/28 10:12:34;;;;;;;0.20;0.20;;;;;;;6.38;63.85;101823.94;5015235;28;20445;-51
2022/02/28 10:15:12;;;;;;;0.20;0.10;;;;;;;6.28;63.58;101830.84;5015317;28;20963;-51
2022/02/28 10:17:41;;;;;;;16.77;1.67;;;;;;;6.55;65.46;101832.94;5015327;28;20491;-52
2022/02/28 10:20:21;;;;;;;0.30;0.20;;;;;;;6.77;63.82;101832.34;5015138;28;20973;-51
2022/02/28 10:22:59;;;;;;;0.20;0.10;;;;;;;6.51;63.56;101832.03;5015399;28;20455;-52
2022/02/28 10:25:28;;;;;;;0.20;0.10;;;;;;;6.83;64.95;101827.13;5015088;28;20488;-51
2022/02/28 10:28:15;;;;;;;0.20;0.10;;;;;;;6.84;62.76;101828.91;5015008;28;20455;-52
2022/02/28 10:30:52;;;;;;;0.20;0.10;;;;;;;6.56;62.44;101831.19;5015063;28;20452;-51
2022/02/28 10:33:19;;;;;;;0.30;0.20;;;;;;;6.73;63.16;101825.28;5015346;28;20454;-51
2022/02/28 10:36:01;;;;;;;0.30;0.20;;;;;;;6.88;63.86;101821.91;4993394;28;20452;-51
2022/02/28 10:38:33;;;;;;;0.27;0.20;;;;;;;7.05;62.98;101822.97;5013585;28;20461;-52
2022/02/28 10:41:01;;;;;;;0.20;0.10;;;;;;;7.09;62.77;101818.59;5015037;28;20480;-52
2022/02/28 10:43:35;;;;;;;0.33;0.33;;;;;;;7.24;63.45;101820.50;5014807;28;21036;-51
2022/02/28 10:46:17;;;;;;;0.47;0.47;;;;;;;7.34;61.80;101817.97;5015296;28;20491;-51
2022/02/28 10:49:15;;;;;;;0.30;0.20;;;;;;;7.41;59.87;101819.81;5032880;22;20488;-51
2022/02/28 10:51:57;;;;;;;0.30;0.17;;;;;;;7.48;59.79;101815.44;5015218;28;20805;-50
2022/02/28 10:54:26;;;;;;;0.77;0.77;;;;;;;7.45;59.87;101811.91;5028269;28;20476;-50
2022/02/28 10:56:56;;;;;;;0.50;0.50;;;;;;;7.60;60.17;101817.31;5035463;28;20450;-51
2022/02/28 10:59:26;;;;;;;0.30;0.10;;;;;;;7.76;60.59;101813.03;5024144;28;20471;-50
2022/02/28 11:01:54;;;;;;;0.30;0.20;;;;;;;7.65;60.56;101807.66;5026307;28;20548;-50
2022/02/28 11:04:32;;;;;;;0.30;0.20;;;;;;;7.95;60.66;101793.78;5034857;28;20451;-50
2022/02/28 11:06:59;;;;;;;1.80;1.00;;;;;;;8.03;58.00;101800.88;5022271;28;20492;-50
2022/02/28 11:09:30;;;;;;;0.30;0.20;;;;;;;8.35;57.08;101800.19;5020312;28;20927;-51
2022/02/28 11:12:16;;;;;;;0.30;0.20;;;;;;;8.36;55.62;101804.63;5021191;28;21012;-51
2022/02/28 11:14:47;;;;;;;0.30;0.10;;;;;;;8.43;54.96;101798.47;5023713;28;20827;-51
2022/02/28 11:17:25;;;;;;;0.30;0.20;;;;;;;8.43;52.96;101803.78;5017642;28;20489;-51
2022/02/28 11:19:54;;;;;;;0.60;0.50;;;;;;;8.13;53.25;101801.81;5026986;28;20468;-50
2022/02/28 11:22:21;;;;;;;0.30;0.30;;;;;;;8.22;53.39;101798.31;5016445;28;20452;-50
2022/02/28 11:24:48;;;;;;;0.30;0.20;;;;;;;8.36;54.24;101799.34;5026985;28;20554;-51
2022/02/28 11:27:16;;;;;;;0.30;0.20;;;;;;;8.35;52.92;101794.88;5014566;28;21020;-52
2022/02/28 11:29:49;;;;;;;0.30;0.20;;;;;;;8.53;53.35;101797.63;5026791;28;20992;-52